createdAt,value
2019-06-01T00:02:17.820Z,5.50
2019-06-01T00:04:45.356Z,6.67
2019-06-01T00:07:12.817Z,6.03
2019-06-01T00:09:40.995Z,6.20
2019-06-01T00:12:08.453Z,8.10
2019-06-01T00:14:35.768Z,8.07
2019-06-01T00:17:03.500Z,6.30
2019-06-01T00:19:33.785Z,5.80
2019-06-01T00:22:01.277Z,7.90
2019-06-01T00:24:29.021Z,6.60
2019-06-01T00:26:56.518Z,6.23
2019-06-01T00:29:24.158Z,6.87
2019-06-01T00:31:52.102Z,6.63
2019-06-01T00:34:19.756Z,6.17
2019-06-01T00:36:47.794Z,8.17
2019-06-01T00:39:15.266Z,7.80
2019-06-01T00:41:43.879Z,7.43
2019-06-01T00:44:11.361Z,8.53
2019-06-01T00:46:38.907Z,6.70
2019-06-01T00:49:06.634Z,9.63
2019-06-01T00:51:34.630Z,6.63
2019-06-01T00:54:02.619Z,6.10
2019-06-01T00:56:30.033Z,7.43
2019-06-01T00:58:57.446Z,7.50
2019-06-01T01:01:25.170Z,8.50
2019-06-01T01:03:52.767Z,12.03
2019-06-01T01:06:20.380Z,8.57
2019-06-01T01:08:48.982Z,9.40
2019-06-01T01:11:16.732Z,7.50
2019-06-01T01:13:45.704Z,6.03
2019-06-01T01:16:13.162Z,9.37
2019-06-01T01:18:40.851Z,10.47
2019-06-01T01:21:08.200Z,6.83
2019-06-01T01:23:35.804Z,10.03
2019-06-01T01:26:03.490Z,6.13
2019-06-01T01:28:30.992Z,9.10
2019-06-01T01:31:12.089Z,9.63
2019-06-01T01:33:28.010Z,7.33
2019-06-01T01:35:55.920Z,5.93
2019-06-01T01:38:23.645Z,5.80
2019-06-01T01:40:52.132Z,9.37
2019-06-01T01:43:20.076Z,10.83
2019-06-01T01:45:48.542Z,6.77
2019-06-01T01:48:16.258Z,5.87
2019-06-01T01:50:43.709Z,7.67
2019-06-01T01:53:11.131Z,8.33
2019-06-01T01:55:38.557Z,6.80
2019-06-01T01:58:05.984Z,7.13
2019-06-01T02:00:36.255Z,7.13
2019-06-01T02:03:04.175Z,7.90
2019-06-01T02:05:31.613Z,12.87
2019-06-01T02:08:00.065Z,8.60
2019-06-01T02:10:28.025Z,9.53
2019-06-01T02:12:55.572Z,8.20
2019-06-01T02:15:23.018Z,12.53
2019-06-01T02:17:52.012Z,6.57
2019-06-01T02:20:19.792Z,7.73
2019-06-01T02:22:47.157Z,8.30
2019-06-01T02:25:17.209Z,7.97
2019-06-01T02:27:44.931Z,8.73
2019-06-01T02:30:14.681Z,10.37
2019-06-01T02:32:42.681Z,8.50
2019-06-01T02:35:10.347Z,6.97
2019-06-01T02:37:38.046Z,9.03
2019-06-01T02:40:05.679Z,8.47
2019-06-01T02:42:33.067Z,8.30
2019-06-01T02:45:01.531Z,11.60
2019-06-01T02:47:29.217Z,9.43
2019-06-01T02:49:57.636Z,7.80
2019-06-01T02:52:25.582Z,9.20
2019-06-01T02:54:53.315Z,10.80
2019-06-01T02:57:21.008Z,10.07
2019-06-01T02:59:48.470Z,9.50
2019-06-01T03:02:15.820Z,7.40
2019-06-01T03:04:43.626Z,10.70
2019-06-01T03:07:13.316Z,13.67
2019-06-01T03:09:40.922Z,7.90
2019-06-01T03:12:11.717Z,8.67
2019-06-01T03:14:41.095Z,10.70
2019-06-01T03:17:12.195Z,8.70
2019-06-01T03:19:41.701Z,11.00
2019-06-01T03:22:12.096Z,8.17
2019-06-01T03:24:39.561Z,10.73
2019-06-01T03:27:12.344Z,9.60
2019-06-01T03:29:43.737Z,9.60
2019-06-01T03:32:29.725Z,6.47
2019-06-01T03:34:40.456Z,7.53
2019-06-01T03:37:09.063Z,9.10
2019-06-01T03:39:36.519Z,9.40
2019-06-01T03:42:05.122Z,10.53
2019-06-01T03:44:32.601Z,8.37
2019-06-01T03:47:01.538Z,7.13
2019-06-01T03:49:29.055Z,7.33
2019-06-01T03:51:56.482Z,7.50
2019-06-01T03:54:23.923Z,9.37
2019-06-01T03:56:51.373Z,11.03
2019-06-01T03:59:18.809Z,6.57
2019-06-01T04:01:47.218Z,8.80
2019-06-01T04:04:14.691Z,6.37
2019-06-01T04:06:42.103Z,13.60
2019-06-01T04:09:10.065Z,11.37
2019-06-01T04:11:37.490Z,13.47
2019-06-01T04:14:05.638Z,13.53
2019-06-01T04:16:33.673Z,8.17
2019-06-01T04:19:01.695Z,13.23
2019-06-01T04:21:29.664Z,8.17
2019-06-01T04:23:57.106Z,9.07
2019-06-01T04:26:24.526Z,6.90
2019-06-01T04:28:52.267Z,11.80
2019-06-01T04:31:19.714Z,9.47
2019-06-01T04:33:47.188Z,8.07
2019-06-01T04:36:15.853Z,7.87
2019-06-01T04:38:43.586Z,9.33
2019-06-01T04:41:11.959Z,10.70
2019-06-01T04:43:39.665Z,12.23
2019-06-01T04:46:16.258Z,9.43
2019-06-01T04:48:46.683Z,7.10
2019-06-01T04:51:14.965Z,8.23
2019-06-01T04:53:42.446Z,7.73
2019-06-01T04:56:11.034Z,6.37
2019-06-01T04:58:38.535Z,10.63
2019-06-01T05:01:06.869Z,6.23
2019-06-01T05:03:34.697Z,6.10
2019-06-01T05:06:02.122Z,7.53
2019-06-01T05:08:29.805Z,6.63
2019-06-01T05:10:57.436Z,7.85
2019-06-01T05:13:24.798Z,9.88
2019-06-01T05:15:52.228Z,7.12
2019-06-01T05:18:19.925Z,6.83
2019-06-01T05:20:47.280Z,8.55
2019-06-01T05:23:14.867Z,6.42
2019-06-01T05:25:42.836Z,9.05
2019-06-01T05:28:11.190Z,6.95
2019-06-01T05:30:38.603Z,6.00
2019-06-01T05:33:23.609Z,6.28
2019-06-01T05:35:35.271Z,7.00
2019-06-01T05:38:02.703Z,5.03
2019-06-01T05:40:30.107Z,11.53
2019-06-01T05:42:57.466Z,6.35
2019-06-01T05:45:25.194Z,8.38
2019-06-01T05:47:53.098Z,8.58
2019-06-01T05:50:25.701Z,5.80
2019-06-01T05:52:57.807Z,6.95
2019-06-01T05:55:25.530Z,6.20
2019-06-01T05:57:52.893Z,8.70
2019-06-01T06:00:35.127Z,6.15
2019-06-01T06:03:02.828Z,6.25
2019-06-01T06:05:30.249Z,9.45
2019-06-01T06:07:59.827Z,7.72
2019-06-01T06:10:30.280Z,5.45
2019-06-01T06:12:57.967Z,5.87
2019-06-01T06:15:25.337Z,4.58
2019-06-01T06:17:53.081Z,5.87
2019-06-01T06:20:20.823Z,6.45
2019-06-01T06:22:48.317Z,4.78
2019-06-01T06:25:16.407Z,4.92
2019-06-01T06:27:43.852Z,6.30
2019-06-01T06:30:12.724Z,5.97
2019-06-01T06:32:40.229Z,5.42
2019-06-01T06:35:07.854Z,5.42
2019-06-01T06:37:35.425Z,6.85
2019-06-01T06:40:03.867Z,5.90
2019-06-01T06:42:31.356Z,6.30
2019-06-01T06:44:58.850Z,7.87
2019-06-01T06:47:26.302Z,7.85
2019-06-01T06:49:59.683Z,5.95
2019-06-01T06:52:27.638Z,5.95
2019-06-01T06:54:56.116Z,8.18
2019-06-01T06:57:24.217Z,7.22
2019-06-01T06:59:51.937Z,8.10
2019-06-01T07:02:19.408Z,5.65
2019-06-01T07:04:46.916Z,6.60
2019-06-01T07:07:14.319Z,6.15
2019-06-01T07:09:41.765Z,7.15
2019-06-01T07:12:09.238Z,5.60
2019-06-01T07:14:38.538Z,7.00
2019-06-01T07:17:06.273Z,5.58
2019-06-01T07:19:33.728Z,9.98
2019-06-01T07:22:01.218Z,10.35
2019-06-01T07:24:28.704Z,7.47
2019-06-01T07:26:56.458Z,7.87
2019-06-01T07:29:24.227Z,8.00
2019-06-01T07:31:51.666Z,9.30
2019-06-01T07:34:31.078Z,7.70
2019-06-01T07:36:48.886Z,8.68
2019-06-01T07:39:16.310Z,13.50
2019-06-01T07:41:44.120Z,10.38
2019-06-01T07:44:11.557Z,7.70
2019-06-01T07:46:39.265Z,10.80
2019-06-01T07:49:06.883Z,13.15
2019-06-01T07:51:34.351Z,6.30
2019-06-01T07:54:02.607Z,6.55
2019-06-01T07:56:29.967Z,7.22
2019-06-01T07:58:57.374Z,7.45
2019-06-01T08:01:26.828Z,9.10
2019-06-01T08:03:53.974Z,8.78
2019-06-01T08:06:22.555Z,13.62
2019-06-01T08:08:50.912Z,6.35
2019-06-01T08:11:18.623Z,6.62
2019-06-01T08:13:46.319Z,8.03
2019-06-01T08:16:13.792Z,7.60
2019-06-01T08:18:42.578Z,6.95
2019-06-01T08:21:10.579Z,5.85
2019-06-01T08:23:38.032Z,5.50
2019-06-01T08:26:05.762Z,7.97
2019-06-01T08:28:33.533Z,4.30
2019-06-01T08:31:01.074Z,6.78
2019-06-01T08:33:31.532Z,4.47
2019-06-01T08:35:58.124Z,5.42
2019-06-01T08:38:25.622Z,8.90
2019-06-01T08:40:53.008Z,4.62
2019-06-01T08:43:20.472Z,5.08
2019-06-01T08:45:48.003Z,4.97
2019-06-01T08:48:15.767Z,4.92
2019-06-01T08:50:46.025Z,7.75
2019-06-01T08:53:13.125Z,5.45
2019-06-01T08:55:40.597Z,6.53
2019-06-01T08:58:08.079Z,5.67
2019-06-01T09:00:35.808Z,4.42
2019-06-01T09:03:03.662Z,4.40
2019-06-01T09:05:31.548Z,5.28
2019-06-01T09:07:59.024Z,4.97
2019-06-01T09:10:29.258Z,4.70
2019-06-01T09:12:56.519Z,4.83
2019-06-01T09:15:25.592Z,5.10
2019-06-01T09:17:53.123Z,5.60
2019-06-01T09:20:20.635Z,4.83
2019-06-01T09:22:48.336Z,5.03
2019-06-01T09:25:16.114Z,6.75
2019-06-01T09:27:43.548Z,6.00
2019-06-01T09:30:11.424Z,6.50
2019-06-01T09:32:39.090Z,4.72
2019-06-01T09:35:07.557Z,6.42
2019-06-01T09:37:35.072Z,6.35
2019-06-01T09:40:03.277Z,4.85
2019-06-01T09:42:30.996Z,4.80
2019-06-01T09:44:58.696Z,9.25
2019-06-01T09:47:27.074Z,4.72
2019-06-01T09:49:54.625Z,4.17
2019-06-01T09:52:22.078Z,5.92
2019-06-01T09:54:49.793Z,6.75
2019-06-01T09:57:17.566Z,4.78
2019-06-01T09:59:45.598Z,4.12
2019-06-01T10:02:13.014Z,7.45
2019-06-01T10:04:40.451Z,5.90
2019-06-01T10:07:07.907Z,6.60
2019-06-01T10:09:35.815Z,6.53
2019-06-01T10:12:03.888Z,5.30
2019-06-01T10:14:32.141Z,5.55
2019-06-01T10:16:59.868Z,5.80
2019-06-01T10:19:27.345Z,3.75
2019-06-01T10:21:55.059Z,5.17
2019-06-01T10:24:22.788Z,6.33
2019-06-01T10:26:55.150Z,3.52
2019-06-01T10:29:22.947Z,5.53
2019-06-01T10:31:50.377Z,5.75
2019-06-01T10:34:17.870Z,4.87
2019-06-01T10:36:45.336Z,4.87
2019-06-01T10:39:12.851Z,4.85
2019-06-01T10:41:41.477Z,4.83
2019-06-01T10:44:08.915Z,4.33
2019-06-01T10:46:37.604Z,3.15
2019-06-01T10:49:05.359Z,5.20
2019-06-01T10:51:34.048Z,3.30
2019-06-01T10:54:02.023Z,5.65
2019-06-01T10:56:29.830Z,4.10
2019-06-01T10:59:00.545Z,7.15
2019-06-01T11:01:26.434Z,3.25
2019-06-01T11:03:53.941Z,4.78
2019-06-01T11:06:36.284Z,3.40
2019-06-01T11:08:50.618Z,3.50
2019-06-01T11:11:18.072Z,4.97
2019-06-01T11:13:45.541Z,3.47
2019-06-01T11:16:13.016Z,4.25
2019-06-01T11:18:41.838Z,5.85
2019-06-01T11:21:09.341Z,3.27
2019-06-01T11:23:37.496Z,3.08
2019-06-01T11:26:05.233Z,4.15
2019-06-01T11:28:38.116Z,2.70
2019-06-01T11:31:06.046Z,4.28
2019-06-01T11:33:34.160Z,2.90
2019-06-01T11:36:02.374Z,3.50
2019-06-01T11:38:29.846Z,4.28
2019-06-01T11:40:57.304Z,2.80
2019-06-01T11:43:24.805Z,2.95
2019-06-01T11:45:52.187Z,1.90
2019-06-01T11:48:19.663Z,2.08
2019-06-01T11:50:47.394Z,2.42
2019-06-01T11:53:14.819Z,1.95
2019-06-01T11:55:43.373Z,3.90
2019-06-01T11:58:11.089Z,2.87
2019-06-01T12:00:39.508Z,3.52
2019-06-01T12:03:06.979Z,11.22
2019-06-01T12:05:37.885Z,3.33
2019-06-01T12:08:05.449Z,2.02
2019-06-01T12:10:32.898Z,2.52
2019-06-01T12:13:00.378Z,2.75
2019-06-01T12:15:28.455Z,1.50
2019-06-01T12:17:56.317Z,1.80
2019-06-01T12:20:23.796Z,2.33
2019-06-01T12:22:51.264Z,1.72
2019-06-01T12:25:18.691Z,1.80
2019-06-01T12:27:46.204Z,7.28
2019-06-01T12:30:14.540Z,1.60
2019-06-01T12:32:42.033Z,2.55
2019-06-01T12:35:10.389Z,2.75
2019-06-01T12:37:56.032Z,2.42
2019-06-01T12:40:07.977Z,5.15
2019-06-01T12:42:35.491Z,4.37
2019-06-01T12:45:04.075Z,8.60
2019-06-01T12:47:31.538Z,2.83
2019-06-01T12:49:59.315Z,5.55
2019-06-01T12:52:26.751Z,2.12
2019-06-01T12:54:54.778Z,1.65
2019-06-01T12:57:22.239Z,1.75
2019-06-01T12:59:51.256Z,2.10
2019-06-01T13:02:19.082Z,2.95
2019-06-01T13:04:46.905Z,1.90
2019-06-01T13:07:14.382Z,2.10
2019-06-01T13:09:42.150Z,2.50
2019-06-01T13:12:09.626Z,2.17
2019-06-01T13:14:37.167Z,2.00
2019-06-01T13:17:07.759Z,2.10
2019-06-01T13:19:34.671Z,1.72
2019-06-01T13:22:02.310Z,2.17
2019-06-01T13:24:29.843Z,2.52
2019-06-01T13:26:57.566Z,4.03
2019-06-01T13:29:25.383Z,2.77
2019-06-01T13:31:53.182Z,2.70
2019-06-01T13:34:20.624Z,1.70
2019-06-01T13:36:48.975Z,1.70
2019-06-01T13:39:16.808Z,1.77
2019-06-01T13:41:45.069Z,2.55
2019-06-01T13:44:12.582Z,1.85
2019-06-01T13:46:40.021Z,2.50
2019-06-01T13:49:10.221Z,1.98
2019-06-01T13:51:37.675Z,1.77
2019-06-01T13:54:05.090Z,3.50
2019-06-01T13:56:32.636Z,2.40
2019-06-01T13:58:59.987Z,2.20
2019-06-01T14:01:28.037Z,4.17
2019-06-01T14:03:55.832Z,2.98
2019-06-01T14:06:23.299Z,2.10
2019-06-01T14:08:51.164Z,2.42
2019-06-01T14:11:18.838Z,1.80
2019-06-01T14:13:47.391Z,1.40
2019-06-01T14:16:14.847Z,1.57
2019-06-01T14:18:42.292Z,2.27
2019-06-01T14:21:09.733Z,1.65
2019-06-01T14:23:37.204Z,1.57
2019-06-01T14:26:04.620Z,2.10
2019-06-01T14:28:32.592Z,3.05
2019-06-01T14:31:00.055Z,2.62
2019-06-01T14:33:31.668Z,3.30
2019-06-01T14:35:59.630Z,2.87
2019-06-01T14:38:27.109Z,1.60
2019-06-01T14:40:55.193Z,3.35
2019-06-01T14:43:22.662Z,2.65
2019-06-01T14:45:51.539Z,1.95
2019-06-01T14:48:19.061Z,3.05
2019-06-01T14:50:47.505Z,4.30
2019-06-01T14:53:14.949Z,2.20
2019-06-01T14:55:42.629Z,2.12
2019-06-01T14:58:10.093Z,2.27
2019-06-01T15:00:37.823Z,2.83
2019-06-01T15:03:05.640Z,3.22
2019-06-01T15:05:33.099Z,2.45
2019-06-01T15:08:00.494Z,4.95
2019-06-01T15:10:30.546Z,2.22
2019-06-01T15:13:03.373Z,1.80
2019-06-01T15:15:31.236Z,2.33
2019-06-01T15:17:58.651Z,2.83
2019-06-01T15:20:26.070Z,2.77
2019-06-01T15:22:58.441Z,2.10
2019-06-01T15:25:28.329Z,2.33
2019-06-01T15:27:56.889Z,1.77
2019-06-01T15:30:24.448Z,2.90
2019-06-01T15:32:51.973Z,2.52
2019-06-01T15:35:19.385Z,3.50
2019-06-01T15:37:47.150Z,13.95
2019-06-01T15:40:15.309Z,6.33
2019-06-01T15:42:42.768Z,1.87
2019-06-01T15:45:10.447Z,2.10
2019-06-01T15:47:38.145Z,3.30
2019-06-01T15:50:06.834Z,2.17
2019-06-01T15:52:34.309Z,2.67
2019-06-01T15:55:02.869Z,2.65
2019-06-01T15:57:30.359Z,3.20
2019-06-01T15:59:58.611Z,1.80
2019-06-01T16:02:26.318Z,3.22
2019-06-01T16:04:54.866Z,3.42
2019-06-01T16:07:22.800Z,2.35
2019-06-01T16:09:51.633Z,5.60
2019-06-01T16:12:19.019Z,3.58
2019-06-01T16:14:46.758Z,3.58
2019-06-01T16:17:16.044Z,2.37
2019-06-01T16:19:43.365Z,1.80
2019-06-01T16:22:11.071Z,1.92
2019-06-01T16:24:38.535Z,2.95
2019-06-01T16:27:06.004Z,4.05
2019-06-01T16:29:33.413Z,4.50
2019-06-01T16:32:01.180Z,3.12
2019-06-01T16:34:28.973Z,4.53
2019-06-01T16:36:56.800Z,1.98
2019-06-01T16:39:24.269Z,2.35
2019-06-01T16:41:52.014Z,3.08
2019-06-01T16:44:19.989Z,4.72
2019-06-01T16:46:47.467Z,4.60
2019-06-01T16:49:17.239Z,4.70
2019-06-01T16:51:51.952Z,6.40
2019-06-01T16:54:19.466Z,2.02
2019-06-01T16:56:46.923Z,3.45
2019-06-01T16:59:14.354Z,3.92
2019-06-01T17:01:42.097Z,2.50
2019-06-01T17:04:09.861Z,2.08
2019-06-01T17:06:38.339Z,2.58
2019-06-01T17:09:07.018Z,1.70
2019-06-01T17:11:34.642Z,5.22
2019-06-01T17:14:02.868Z,2.10
2019-06-01T17:16:30.552Z,2.87
2019-06-01T17:18:58.973Z,2.75
2019-06-01T17:21:27.703Z,2.60
2019-06-01T17:23:55.510Z,3.55
2019-06-01T17:26:23.211Z,2.83
2019-06-01T17:28:50.642Z,3.30
2019-06-01T17:31:18.077Z,2.92
2019-06-01T17:33:45.769Z,3.67
2019-06-01T17:36:13.231Z,3.08
2019-06-01T17:38:41.066Z,2.60
2019-06-01T17:41:08.783Z,3.35
2019-06-01T17:43:36.211Z,2.00
2019-06-01T17:46:05.191Z,2.85
2019-06-01T17:48:32.743Z,4.28
2019-06-01T17:51:00.489Z,3.15
2019-06-01T17:53:27.879Z,4.22
2019-06-01T17:55:55.340Z,2.20
2019-06-01T17:58:22.822Z,1.90
2019-06-01T18:00:50.479Z,2.37
2019-06-01T18:03:17.879Z,1.92
2019-06-01T18:05:45.754Z,2.98
2019-06-01T18:08:13.852Z,2.58
2019-06-01T18:10:53.914Z,3.40
2019-06-01T18:13:18.442Z,5.80
2019-06-01T18:15:50.130Z,4.08
2019-06-01T18:18:23.613Z,2.58
2019-06-01T18:20:51.625Z,3.05
2019-06-01T18:23:19.082Z,2.95
2019-06-01T18:25:47.111Z,4.17
2019-06-01T18:28:19.193Z,3.90
2019-06-01T18:30:48.302Z,6.33
2019-06-01T18:33:15.928Z,2.00
2019-06-01T18:35:43.653Z,2.30
2019-06-01T18:38:13.038Z,3.40
2019-06-01T18:40:40.880Z,2.33
2019-06-01T18:43:14.078Z,3.02
2019-06-01T18:45:42.557Z,5.15
2019-06-01T18:48:10.299Z,1.87
2019-06-01T18:50:37.905Z,2.22
2019-06-01T18:53:06.010Z,2.10
2019-06-01T18:55:35.827Z,4.25
2019-06-01T18:58:03.911Z,2.25
2019-06-01T19:00:31.463Z,2.70
2019-06-01T19:02:59.233Z,2.30
2019-06-01T19:05:27.081Z,2.75
2019-06-01T19:07:55.311Z,2.45
2019-06-01T19:10:22.833Z,2.60
2019-06-01T19:12:50.717Z,2.37
2019-06-01T19:15:26.699Z,2.10
2019-06-01T19:17:47.784Z,2.87
2019-06-01T19:20:15.418Z,2.20
2019-06-01T19:22:43.280Z,2.98
2019-06-01T19:25:13.201Z,2.95
2019-06-01T19:27:40.796Z,4.95
2019-06-01T19:30:10.822Z,4.28
2019-06-01T19:32:40.960Z,3.40
2019-06-01T19:35:09.681Z,2.83
2019-06-01T19:37:42.729Z,4.08
2019-06-01T19:40:13.440Z,2.10
2019-06-01T19:42:40.873Z,5.37
2019-06-01T19:45:22.582Z,2.30
2019-06-01T19:47:38.383Z,4.00
2019-06-01T19:50:06.353Z,4.87
2019-06-01T19:52:34.057Z,5.28
2019-06-01T19:55:01.532Z,2.22
2019-06-01T19:57:29.232Z,2.72
2019-06-01T19:59:56.691Z,4.80
2019-06-01T20:02:33.333Z,7.53
2019-06-01T20:04:53.647Z,4.37
2019-06-01T20:07:21.406Z,6.45
2019-06-01T20:09:49.065Z,4.55
2019-06-01T20:12:18.574Z,5.58
2019-06-01T20:14:46.414Z,5.22
2019-06-01T20:17:17.815Z,6.30
2019-06-01T20:19:46.429Z,6.05
2019-06-01T20:22:17.057Z,4.78
2019-06-01T20:24:44.441Z,6.33
2019-06-01T20:27:19.487Z,4.50
2019-06-01T20:29:47.113Z,3.92
2019-06-01T20:32:15.807Z,5.28
2019-06-01T20:34:43.520Z,4.95
2019-06-01T20:37:11.842Z,5.45
2019-06-01T20:39:39.911Z,5.37
2019-06-01T20:42:20.768Z,4.55
2019-06-01T20:44:38.496Z,7.12
2019-06-01T20:47:06.299Z,7.42
2019-06-01T20:49:37.494Z,6.28
2019-06-01T20:52:04.946Z,4.00
2019-06-01T20:54:32.384Z,5.33
2019-06-01T20:57:00.225Z,5.53
2019-06-01T20:59:27.973Z,8.15
2019-06-01T21:01:55.412Z,7.67
2019-06-01T21:04:22.823Z,7.83
2019-06-01T21:06:50.293Z,8.38
2019-06-01T21:09:17.849Z,8.70
2019-06-01T21:11:45.653Z,8.58
2019-06-01T21:14:13.854Z,7.45
2019-06-01T21:16:42.507Z,7.03
2019-06-01T21:19:12.080Z,7.55
2019-06-01T21:21:39.843Z,7.87
2019-06-01T21:24:07.393Z,6.83
2019-06-01T21:26:34.789Z,8.15
2019-06-01T21:29:02.562Z,9.45
2019-06-01T21:31:32.919Z,9.95
2019-06-01T21:34:00.674Z,8.10
2019-06-01T21:36:31.811Z,10.55
2019-06-01T21:38:59.584Z,9.10
2019-06-01T21:41:27.324Z,8.15
2019-06-01T21:43:55.043Z,8.33
2019-06-01T21:46:23.695Z,9.18
2019-06-01T21:48:51.498Z,6.58
2019-06-01T21:51:19.734Z,6.45
2019-06-01T21:53:47.199Z,6.62
2019-06-01T21:56:17.435Z,5.17
2019-06-01T21:58:44.193Z,6.92
2019-06-01T22:01:11.840Z,5.05
2019-06-01T22:03:39.398Z,6.87
2019-06-01T22:06:07.973Z,5.80
2019-06-01T22:08:35.410Z,5.58
2019-06-01T22:11:03.170Z,4.50
2019-06-01T22:13:30.560Z,7.33
2019-06-01T22:15:57.982Z,6.70
2019-06-01T22:18:25.812Z,8.73
2019-06-01T22:20:53.420Z,8.00
2019-06-01T22:23:21.951Z,5.63
2019-06-01T22:25:49.747Z,6.08
2019-06-01T22:28:18.137Z,7.53
2019-06-01T22:30:45.598Z,10.35
2019-06-01T22:33:13.095Z,8.37
2019-06-01T22:35:40.810Z,5.75
2019-06-01T22:38:08.263Z,9.80
2019-06-01T22:40:35.633Z,9.63
2019-06-01T22:43:03.047Z,10.10
2019-06-01T22:45:30.643Z,7.05
2019-06-01T22:47:58.266Z,12.83
2019-06-01T22:50:25.585Z,8.80
2019-06-01T22:52:53.184Z,9.13
2019-06-01T22:55:20.584Z,8.50
2019-06-01T22:57:48.090Z,9.43
2019-06-01T23:00:16.364Z,8.60
2019-06-01T23:02:43.829Z,9.40
2019-06-01T23:05:11.294Z,7.20
2019-06-01T23:07:39.010Z,8.37
2019-06-01T23:10:07.186Z,8.23
2019-06-01T23:12:34.918Z,8.70
2019-06-01T23:15:02.370Z,10.18
2019-06-01T23:17:29.985Z,9.80
2019-06-01T23:19:57.779Z,8.33
2019-06-01T23:22:26.010Z,8.70
2019-06-01T23:24:53.441Z,10.57
2019-06-01T23:27:22.068Z,8.33
2019-06-01T23:29:49.847Z,13.47
2019-06-01T23:32:17.342Z,8.27
2019-06-01T23:34:44.968Z,8.77
2019-06-01T23:37:12.436Z,9.83
2019-06-01T23:39:39.972Z,8.90
2019-06-01T23:42:07.441Z,10.03
2019-06-01T23:44:35.146Z,9.53
2019-06-01T23:47:03.004Z,10.40
2019-06-01T23:49:31.350Z,8.77
2019-06-01T23:51:58.772Z,9.40
2019-06-01T23:54:26.057Z,12.00
2019-06-01T23:56:53.384Z,11.23
2019-06-01T23:59:21.360Z,16.40
